Time;durP1;ratioP1;P1;durP2;ratioP2;P2;SDS_P1;SDS_P2;PMS_P1;PMS_P2;Temp;Humidity;BMP_temperature;BMP_pressure;BME280_temperature;BME280_humidity;BME280_pressure;Samples;Min_cycle;Max_cycle;Signal;HPM_P1;HPM_P2
2023/05/08 00:01:03;;;;;;;4.13;2.70;;;;;;;-144.73;100.00;54432.31;5012946;28;20034;-70
2023/05/08 00:03:28;;;;;;;8.85;3.05;;;;;;;-144.73;100.00;54428.22;5016292;28;20013;-70
2023/05/08 00:05:54;;;;;;;3.72;2.83;;;;;;;-144.73;100.00;54432.31;5027394;28;20030;-70
2023/05/08 00:08:20;;;;;;;4.10;2.60;;;;;;;-144.73;100.00;54399.50;5010831;28;20084;-70
2023/05/08 00:10:45;;;;;;;5.93;2.88;;;;;;;-144.73;100.00;54407.69;5017398;28;20033;-69
2023/05/08 00:13:10;;;;;;;7.88;2.95;;;;;;;-144.73;100.00;54432.31;5027141;28;20026;-69
2023/05/08 00:15:36;;;;;;;8.45;3.17;;;;;;;-144.73;100.00;54415.91;5017397;28;20033;-70
2023/05/08 00:18:01;;;;;;;5.55;3.17;;;;;;;-144.73;100.00;54448.75;5018351;28;20037;-69
2023/05/08 00:20:27;;;;;;;7.30;3.88;;;;;;;-144.73;100.00;54428.22;5013830;28;20080;-69
2023/05/08 00:22:53;;;;;;;6.22;3.47;;;;;;;-144.73;100.00;54397.44;5013803;28;20092;-70
2023/05/08 00:25:18;;;;;;;4.53;2.97;;;;;;;-144.73;100.00;54432.31;5016091;28;20029;-69
2023/05/08 00:27:44;;;;;;;6.15;3.55;;;;;;;-144.73;100.00;54420.00;5013341;28;20057;-69
2023/05/08 00:30:10;;;;;;;4.75;3.25;;;;;;;-144.73;100.00;54444.66;5031550;28;20025;-69
2023/05/08 00:32:35;;;;;;;4.28;3.15;;;;;;;-144.73;100.00;54436.44;5008426;28;20107;-70
2023/05/08 00:35:00;;;;;;;6.45;3.50;;;;;;;-144.73;100.00;54465.16;5011184;28;20108;-70
2023/05/08 00:37:26;;;;;;;9.82;3.13;;;;;;;-144.73;100.00;54415.91;5015148;28;20026;-69
2023/05/08 00:39:51;;;;;;;6.57;3.28;;;;;;;-144.73;100.00;54452.84;5012745;28;20033;-69
2023/05/08 00:42:17;;;;;;;6.40;3.42;;;;;;;-144.73;100.00;54432.31;5010458;28;20057;-69
2023/05/08 00:44:42;;;;;;;6.22;3.35;;;;;;;-144.73;100.00;54448.75;5010404;28;20025;-69
2023/05/08 00:47:08;;;;;;;7.25;3.28;;;;;;;-144.73;100.00;54411.81;5011912;28;20457;-69
2023/05/08 00:49:34;;;;;;;4.38;3.30;;;;;;;-144.73;100.00;54465.16;5010416;28;20076;-69
2023/05/08 00:52:03;;;;;;;8.02;3.20;;;;;;;-144.73;100.00;54432.31;5010333;28;20040;-69
2023/05/08 00:54:29;;;;;;;5.30;3.30;;;;;;;-144.73;100.00;54415.91;5015755;28;20022;-69
2023/05/08 00:56:55;;;;;;;6.10;3.10;;;;;;;-144.73;100.00;54432.31;5030977;28;20041;-69
2023/05/08 00:59:21;;;;;;;6.57;3.10;;;;;;;-144.73;100.00;54469.28;5014789;28;20491;-69
2023/05/08 01:01:47;;;;;;;4.13;3.20;;;;;;;-144.73;100.00;54444.66;5013196;28;20071;-69
2023/05/08 01:04:13;;;;;;;6.70;3.10;;;;;;;-144.73;100.00;54420.00;5023920;28;20018;-69
2023/05/08 01:06:38;;;;;;;5.45;3.67;;;;;;;-144.73;100.00;54452.84;5014725;28;20030;-69
2023/05/08 01:09:04;;;;;;;6.05;3.35;;;;;;;-144.73;100.00;54434.38;5009645;28;20060;-68
2023/05/08 01:11:42;;;;;;;9.05;3.55;;;;;;;-144.73;100.00;54422.06;5007243;28;20060;-69
2023/05/08 01:14:43;;;;;;;7.22;3.55;;;;;;;-144.73;100.00;54407.69;5032362;28;20033;-69
2023/05/08 01:17:15;;;;;;;6.70;3.33;;;;;;;-144.73;100.00;54411.81;5030327;28;20037;-69
2023/05/08 01:20:05;;;;;;;4.18;3.10;;;;;;;-144.73;100.00;54407.69;5006103;28;20026;-69
2023/05/08 01:22:53;;;;;;;9.75;4.45;;;;;;;-144.73;100.00;54461.06;5006719;28;20413;-69
2023/05/08 01:25:44;;;;;;;9.65;3.58;;;;;;;-144.73;100.00;54465.16;5004162;28;20038;-69
2023/05/08 01:28:50;;;;;;;9.40;3.90;;;;;;;-144.73;100.00;54440.53;5011317;28;20042;-69
2023/05/08 01:31:37;;;;;;;6.53;3.30;;;;;;;-144.73;100.00;54399.50;5014120;28;20025;-69
2023/05/08 01:34:07;;;;;;;4.85;3.20;;;;;;;-144.73;100.00;54444.66;5010562;28;20041;-69
2023/05/08 01:36:38;;;;;;;5.40;3.35;;;;;;;-144.73;100.00;54442.59;5020908;28;20045;-69
2023/05/08 01:39:16;;;;;;;9.52;3.42;;;;;;;-144.73;100.00;54428.22;5013267;28;20032;-69
2023/05/08 01:41:49;;;;;;;9.82;4.13;;;;;;;-144.73;100.00;54432.31;5014849;28;20036;-69
2023/05/08 01:44:19;;;;;;;7.45;3.53;;;;;;;-144.73;100.00;54395.38;5010936;28;20105;-69
2023/05/08 01:46:48;;;;;;;5.85;3.50;;;;;;;-144.73;100.00;54430.28;5008853;28;20033;-69
2023/05/08 01:49:27;;;;;;;7.35;3.90;;;;;;;-144.73;100.00;54411.81;5008317;28;20017;-69
2023/05/08 01:51:59;;;;;;;5.05;3.60;;;;;;;-144.73;100.00;54428.22;5011048;28;20041;-69
2023/05/08 01:54:28;;;;;;;4.95;3.55;;;;;;;-144.73;100.00;54407.69;5014547;28;20130;-69
2023/05/08 01:56:58;;;;;;;5.45;3.70;;;;;;;-144.73;100.00;54444.66;5010187;28;20033;-69
2023/05/08 01:59:27;;;;;;;3.72;3.08;;;;;;;-144.73;100.00;54440.53;5011474;28;20017;-69
2023/05/08 02:01:55;;;;;;;4.85;3.25;;;;;;;-144.73;100.00;54440.53;5010361;28;20029;-69
2023/05/08 02:04:22;;;;;;;5.13;3.40;;;;;;;-144.73;100.00;54420.00;5024521;28;20077;-70
2023/05/08 02:06:50;;;;;;;6.53;4.35;;;;;;;-144.73;100.00;54424.13;5014409;28;20267;-70
2023/05/08 02:09:15;;;;;;;6.15;3.50;;;;;;;-144.73;100.00;54456.97;5024730;28;20048;-70
2023/05/08 02:11:43;;;;;;;6.40;3.28;;;;;;;-144.73;100.00;54374.84;5014161;28;20029;-69
2023/05/08 02:14:12;;;;;;;6.28;4.00;;;;;;;-144.73;100.00;54370.75;5009867;28;20497;-69
2023/05/08 02:16:41;;;;;;;8.73;3.63;;;;;;;-144.73;100.00;54452.84;5025876;28;20033;-69
2023/05/08 02:19:09;;;;;;;6.75;3.67;;;;;;;-144.73;100.00;54407.69;5014490;28;20021;-69
2023/05/08 02:21:36;;;;;;;5.65;4.25;;;;;;;-144.73;100.00;54436.44;5013966;28;20040;-69
2023/05/08 02:24:03;;;;;;;8.52;4.15;;;;;;;-144.73;100.00;54409.75;5013327;28;20536;-69
2023/05/08 02:26:31;;;;;;;6.35;3.65;;;;;;;-144.73;100.00;54432.31;5013352;28;20029;-69
2023/05/08 02:28:57;;;;;;;6.07;3.70;;;;;;;-144.73;100.00;54440.53;5007868;28;20060;-70
2023/05/08 02:31:23;;;;;;;7.15;4.45;;;;;;;-144.73;100.00;54444.66;5030881;28;20037;-69
2023/05/08 02:33:50;;;;;;;5.43;4.38;;;;;;;-144.73;100.00;54395.38;5006357;28;20041;-69
2023/05/08 02:36:17;;;;;;;5.85;4.20;;;;;;;-144.73;100.00;54424.13;5023627;28;20053;-70
2023/05/08 02:38:50;;;;;;;7.60;4.88;;;;;;;-144.73;100.00;54407.69;5005708;28;20029;-69
2023/05/08 02:41:18;;;;;;;6.28;4.43;;;;;;;-144.73;100.00;54428.22;5020477;28;20063;-69
2023/05/08 02:43:44;;;;;;;8.77;4.25;;;;;;;-144.73;100.00;54461.06;5027112;28;20098;-69
2023/05/08 02:46:17;;;;;;;5.93;3.70;;;;;;;-144.73;100.00;54407.69;5013454;28;20025;-70
2023/05/08 02:49:03;;;;;;;9.68;4.30;;;;;;;-144.73;100.00;54420.00;5009925;28;20033;-69
2023/05/08 02:51:44;;;;;;;12.20;4.43;;;;;;;-144.73;100.00;54444.66;5010754;28;20025;-69
2023/05/08 02:54:16;;;;;;;7.40;4.45;;;;;;;-144.73;100.00;54465.16;5016520;28;20048;-69
2023/05/08 02:56:59;;;;;;;9.38;4.43;;;;;;;-144.73;100.00;54399.50;5027014;28;20041;-69
2023/05/08 02:59:38;;;;;;;6.38;4.53;;;;;;;-144.73;100.00;54411.81;5000835;28;20105;-69
2023/05/08 03:02:13;;;;;;;8.45;5.20;;;;;;;-144.73;100.00;54424.13;5029862;28;20466;-69
2023/05/08 03:04:48;;;;;;;7.32;4.20;;;;;;;-144.73;100.00;54428.22;5026330;28;20013;-69
2023/05/08 03:07:15;;;;;;;5.75;4.25;;;;;;;-144.73;100.00;54407.69;5009250;28;20125;-69
2023/05/08 03:09:44;;;;;;;7.28;4.28;;;;;;;-144.73;100.00;54407.69;5011216;28;20014;-69
2023/05/08 03:12:16;;;;;;;10.40;4.53;;;;;;;-144.73;100.00;54454.91;5003974;28;20088;-69
2023/05/08 03:14:54;;;;;;;8.38;4.47;;;;;;;-144.73;100.00;54436.44;5023277;28;20025;-69
2023/05/08 03:17:21;;;;;;;7.40;4.72;;;;;;;-144.73;100.00;54432.31;5013485;28;20029;-69
2023/05/08 03:19:51;;;;;;;7.63;4.68;;;;;;;-144.73;100.00;54415.91;5018856;28;20033;-69
2023/05/08 03:22:19;;;;;;;8.48;5.20;;;;;;;-144.73;100.00;54415.91;5025592;28;20099;-69
2023/05/08 03:24:46;;;;;;;8.05;4.55;;;;;;;-144.73;100.00;54446.69;5023376;28;20075;-69
2023/05/08 03:27:12;;;;;;;7.53;5.25;;;;;;;-144.73;100.00;54424.13;5013829;28;20117;-70
2023/05/08 03:29:38;;;;;;;7.97;4.90;;;;;;;-144.73;100.00;54444.66;5005155;28;20014;-69
2023/05/08 03:32:04;;;;;;;5.82;4.45;;;;;;;-144.73;100.00;54407.69;5009503;28;20030;-69
2023/05/08 03:34:31;;;;;;;6.53;4.40;;;;;;;-144.73;100.00;54407.69;5025352;28;20029;-69
2023/05/08 03:36:57;;;;;;;6.30;4.97;;;;;;;-144.73;100.00;54399.50;5015130;28;20561;-69
2023/05/08 03:39:24;;;;;;;7.07;4.68;;;;;;;-144.73;100.00;54411.81;5013372;28;20096;-69
2023/05/08 03:41:50;;;;;;;6.72;4.72;;;;;;;-144.73;100.00;54428.22;5001335;28;20040;-69
2023/05/08 03:44:17;;;;;;;7.38;4.53;;;;;;;-144.73;100.00;54436.44;5022119;28;20021;-69
2023/05/08 03:46:45;;;;;;;7.13;4.55;;;;;;;-144.73;100.00;54444.66;5004397;28;20030;-69
2023/05/08 03:49:11;;;;;;;13.52;5.30;;;;;;;-144.73;100.00;54452.84;5024643;28;20155;-69
2023/05/08 03:51:40;;;;;;;8.73;5.40;;;;;;;-144.73;100.00;54452.84;5003577;28;20054;-69
2023/05/08 03:54:06;;;;;;;7.13;4.85;;;;;;;-144.73;100.00;54452.84;5008139;28;20021;-69
2023/05/08 03:56:32;;;;;;;8.25;4.80;;;;;;;-144.73;100.00;54391.28;5032532;28;20034;-69
2023/05/08 03:59:20;;;;;;;8.63;5.05;;;;;;;-144.73;100.00;54420.00;5009957;28;20040;-69
2023/05/08 04:02:20;;;;;;;7.57;5.07;;;;;;;-144.73;100.00;54481.59;5013353;28;20037;-69
2023/05/08 04:04:49;;;;;;;8.10;4.45;;;;;;;-144.73;100.00;54428.22;5010876;28;20025;-69
2023/05/08 04:07:23;;;;;;;7.13;4.82;;;;;;;-144.73;100.00;54440.53;5035401;28;20036;-69
2023/05/08 04:09:54;;;;;;;10.13;5.20;;;;;;;-144.73;100.00;54461.06;5005587;28;20025;-69
2023/05/08 04:12:31;;;;;;;12.90;5.78;;;;;;;-144.73;100.00;54424.13;5026682;28;20123;-69
2023/05/08 04:15:06;;;;;;;13.85;5.18;;;;;;;-144.73;100.00;54440.53;5016325;28;20028;-69
2023/05/08 04:17:52;;;;;;;9.32;4.95;;;;;;;-144.73;100.00;54473.38;5016504;28;20030;-69
2023/05/08 04:20:21;;;;;;;8.68;5.00;;;;;;;-144.73;100.00;54415.91;5012903;28;20033;-69
2023/05/08 04:22:48;;;;;;;6.32;4.82;;;;;;;-144.73;100.00;54461.06;5020528;28;20056;-69
2023/05/08 04:25:29;;;;;;;8.48;4.82;;;;;;;-144.73;100.00;54432.31;5009850;28;20021;-69
2023/05/08 04:27:56;;;;;;;7.07;4.75;;;;;;;-144.73;100.00;54436.44;5009260;28;20041;-69
2023/05/08 04:30:22;;;;;;;7.68;5.03;;;;;;;-144.73;100.00;54436.44;5033268;28;20025;-69
2023/05/08 04:32:48;;;;;;;10.75;5.35;;;;;;;-144.73;100.00;54448.75;5008184;28;20038;-69
2023/05/08 04:35:13;;;;;;;15.88;5.50;;;;;;;-144.73;100.00;54411.81;5030609;28;20021;-69
2023/05/08 04:37:41;;;;;;;7.80;5.38;;;;;;;-144.73;100.00;54436.44;5010737;28;20076;-69
2023/05/08 04:40:08;;;;;;;7.13;4.97;;;;;;;-144.73;100.00;54454.91;5015979;28;20120;-69
2023/05/08 04:42:35;;;;;;;13.32;4.82;;;;;;;-144.73;100.00;54428.22;5007217;28;20029;-69
2023/05/08 04:45:01;;;;;;;6.82;5.13;;;;;;;-144.73;100.00;54444.66;5024396;28;20033;-69
2023/05/08 04:47:26;;;;;;;12.77;5.30;;;;;;;-144.73;100.00;54452.84;5007763;28;20034;-69
2023/05/08 04:49:52;;;;;;;7.63;5.20;;;;;;;-144.73;100.00;54426.16;5029934;28;20425;-69
2023/05/08 04:52:17;;;;;;;9.30;5.97;;;;;;;-144.73;100.00;54436.44;5013829;28;20038;-69
2023/05/08 04:54:42;;;;;;;7.13;5.40;;;;;;;-144.73;100.00;54424.13;5013550;28;20060;-69
2023/05/08 04:57:08;;;;;;;9.88;5.70;;;;;;;-144.73;100.00;54456.97;5013441;28;20068;-69
2023/05/08 04:59:33;;;;;;;8.40;4.95;;;;;;;-144.73;100.00;54424.13;5021193;28;20026;-69
2023/05/08 05:02:02;;;;;;;9.65;5.20;;;;;;;-144.73;100.00;54432.31;5009098;28;20121;-69
2023/05/08 05:04:27;;;;;;;11.85;5.50;;;;;;;-144.73;100.00;54432.31;5023961;28;20045;-69
2023/05/08 05:06:53;;;;;;;7.80;5.43;;;;;;;-144.73;100.00;54436.44;5014639;28;20140;-69
2023/05/08 05:09:18;;;;;;;9.73;5.38;;;;;;;-144.73;100.00;54440.53;5015082;28;20073;-69
2023/05/08 05:11:44;;;;;;;10.95;5.85;;;;;;;-144.73;100.00;54456.97;5032485;28;20076;-69
2023/05/08 05:14:09;;;;;;;7.95;5.22;;;;;;;-144.73;100.00;54461.06;5010460;28;20481;-69
2023/05/08 05:16:34;;;;;;;8.82;5.32;;;;;;;-144.73;100.00;54407.69;5020710;28;20092;-69
2023/05/08 05:19:00;;;;;;;10.10;5.22;;;;;;;-144.73;100.00;54452.84;5015545;28;20036;-70
2023/05/08 05:21:26;;;;;;;12.10;5.07;;;;;;;-144.73;100.00;54440.53;5003801;28;20038;-69
2023/05/08 05:23:52;;;;;;;13.65;5.90;;;;;;;-144.73;100.00;54417.97;5025118;28;20026;-70
2023/05/08 05:26:18;;;;;;;8.90;5.60;;;;;;;-144.73;100.00;54430.28;5021124;28;20511;-70
2023/05/08 05:28:43;;;;;;;9.70;5.78;;;;;;;-144.73;100.00;54448.75;5024482;28;20048;-69
2023/05/08 05:31:09;;;;;;;15.75;5.30;;;;;;;-144.73;100.00;54448.75;5005178;28;20045;-68
2023/05/08 05:33:34;;;;;;;10.05;5.90;;;;;;;-144.73;100.00;54424.13;5026140;28;20022;-70
2023/05/08 05:36:00;;;;;;;9.70;5.95;;;;;;;-144.73;100.00;54454.91;5005357;28;20029;-70
2023/05/08 05:38:25;;;;;;;8.60;5.43;;;;;;;-144.73;100.00;54407.69;5015531;28;20522;-71
2023/05/08 05:40:51;;;;;;;10.40;5.60;;;;;;;-144.73;100.00;54413.84;5024232;28;20057;-70
2023/05/08 05:43:16;;;;;;;9.00;5.15;;;;;;;-144.73;100.00;54461.06;5013236;28;20029;-69
2023/05/08 05:45:41;;;;;;;13.50;5.38;;;;;;;-144.73;100.00;54436.44;5007809;28;20083;-70
2023/05/08 05:48:07;;;;;;;11.80;5.80;;;;;;;-144.73;100.00;54415.91;5026084;28;20397;-70
2023/05/08 05:50:32;;;;;;;8.10;5.47;;;;;;;-144.73;100.00;54448.75;5004071;28;20029;-69
2023/05/08 05:52:58;;;;;;;9.35;5.80;;;;;;;-144.73;100.00;54428.22;5029571;28;20037;-69
2023/05/08 05:55:23;;;;;;;11.05;5.38;;;;;;;-144.73;100.00;54456.97;5032438;28;20021;-69
2023/05/08 05:57:49;;;;;;;8.73;5.80;;;;;;;-144.73;100.00;54438.50;5016163;28;20120;-70
2023/05/08 06:00:15;;;;;;;14.68;6.00;;;;;;;-144.73;100.00;54440.53;5006510;28;20035;-70
2023/05/08 06:02:40;;;;;;;10.80;5.60;;;;;;;-144.73;100.00;54411.81;5008595;28;20051;-70
2023/05/08 06:05:06;;;;;;;9.50;5.85;;;;;;;-144.73;100.00;54417.97;5006969;28;20491;-70
2023/05/08 06:07:32;;;;;;;8.75;5.97;;;;;;;-144.73;100.00;54461.06;5014262;28;20033;-70
2023/05/08 06:09:58;;;;;;;10.95;6.40;;;;;;;-144.73;100.00;54465.16;5008890;28;20485;-70
2023/05/08 06:12:24;;;;;;;13.60;5.93;;;;;;;-144.73;100.00;54387.19;5010662;28;20080;-70
2023/05/08 06:14:53;;;;;;;12.68;6.03;;;;;;;-144.73;100.00;54452.84;5005687;28;20026;-70
2023/05/08 06:17:19;;;;;;;17.80;6.90;;;;;;;-144.73;100.00;54391.28;5017683;28;20041;-70
2023/05/08 06:19:49;;;;;;;11.73;6.22;;;;;;;-144.73;100.00;54428.22;4997780;28;20100;-71
2023/05/08 06:22:17;;;;;;;14.23;5.95;;;;;;;-144.73;100.00;54444.66;5030845;28;20404;-70
2023/05/08 06:24:42;;;;;;;11.90;6.95;;;;;;;-144.73;100.00;54444.66;5011771;28;20044;-70
2023/05/08 06:27:08;;;;;;;11.60;6.72;;;;;;;-144.73;100.00;54424.13;5009470;28;20516;-70
2023/05/08 06:29:33;;;;;;;10.45;6.68;;;;;;;-144.73;100.00;54407.69;5010508;28;20022;-69
2023/05/08 06:31:59;;;;;;;12.95;6.75;;;;;;;-144.73;100.00;54444.66;5000007;28;20090;-68
2023/05/08 06:34:24;;;;;;;11.63;6.10;;;;;;;-144.73;99.56;54420.00;5011437;28;20040;-70
2023/05/08 06:36:49;;;;;;;9.75;6.10;;;;;;;-144.73;99.48;54465.16;5010452;28;20029;-70
2023/05/08 06:39:15;;;;;;;12.35;6.43;;;;;;;-144.73;98.62;54424.13;5026115;28;20123;-69
2023/05/08 06:41:41;;;;;;;11.20;6.65;;;;;;;-144.73;98.54;54415.91;5007660;28;20029;-69
2023/05/08 06:44:06;;;;;;;9.30;7.03;;;;;;;-144.73;98.33;54461.06;5022985;28;20029;-69
2023/05/08 06:46:31;;;;;;;8.98;6.15;;;;;;;-144.73;98.52;54424.13;5002523;28;20037;-69
2023/05/08 06:48:57;;;;;;;9.40;6.72;;;;;;;-144.73;98.08;54428.22;5003712;28;20033;-70
2023/05/08 06:51:22;;;;;;;10.95;6.75;;;;;;;-144.73;98.43;54432.31;5031980;28;20123;-68
2023/05/08 06:53:47;;;;;;;13.13;6.78;;;;;;;-144.73;97.68;54448.75;5015946;28;20091;-68
2023/05/08 06:56:13;;;;;;;11.52;6.88;;;;;;;-144.73;97.14;54407.69;5015427;28;20033;-68
2023/05/08 06:58:38;;;;;;;11.50;6.90;;;;;;;-144.73;98.07;54395.38;5015216;28;20060;-68
2023/05/08 07:01:03;;;;;;;11.23;7.18;;;;;;;-144.73;97.36;54411.81;5015865;28;20037;-68
2023/05/08 07:03:29;;;;;;;11.35;7.18;;;;;;;-144.73;95.93;54422.06;5015917;28;20075;-69
2023/05/08 07:05:54;;;;;;;10.88;7.00;;;;;;;-144.73;95.59;54444.66;5015854;28;20033;-69
2023/05/08 07:08:20;;;;;;;10.05;6.75;;;;;;;-144.73;96.19;54420.00;5033487;28;20033;-69
2023/05/08 07:10:45;;;;;;;11.85;7.63;;;;;;;-144.73;94.94;54428.22;5015026;28;20029;-69
2023/05/08 07:13:11;;;;;;;15.68;6.85;;;;;;;-144.73;95.10;54432.31;5013955;28;20070;-69
2023/05/08 07:15:37;;;;;;;11.98;7.50;;;;;;;-144.73;95.78;54387.19;5024514;28;20060;-68
2023/05/08 07:18:04;;;;;;;9.77;6.88;;;;;;;-144.73;95.95;54452.84;5011036;28;20412;-68
2023/05/08 07:20:30;;;;;;;10.95;6.80;;;;;;;-144.73;95.04;54407.69;5009661;28;20075;-68
2023/05/08 07:22:55;;;;;;;10.93;6.65;;;;;;;-144.73;94.99;54387.19;5010339;28;20025;-72
2023/05/08 07:25:21;;;;;;;12.15;7.28;;;;;;;-144.73;94.43;54415.91;5028633;28;20025;-69
2023/05/08 07:27:46;;;;;;;13.07;7.47;;;;;;;-144.73;92.88;54428.22;5009948;28;20042;-68
2023/05/08 07:30:12;;;;;;;56.15;8.88;;;;;;;-144.73;92.03;54428.22;5009884;28;20057;-70
2023/05/08 07:32:38;;;;;;;46.20;8.65;;;;;;;-144.73;90.16;54354.34;5008156;28;20041;-69
2023/05/08 07:35:05;;;;;;;12.32;6.47;;;;;;;-144.73;89.14;54362.53;5027818;28;20116;-68
2023/05/08 07:37:31;;;;;;;13.32;7.30;;;;;;;-144.73;90.75;54376.91;5009791;28;20045;-67
2023/05/08 07:39:57;;;;;;;13.45;6.80;;;;;;;-144.73;89.64;54395.38;5028235;28;20037;-68
2023/05/08 07:42:22;;;;;;;15.63;7.03;;;;;;;-144.73;88.63;54444.66;5031803;28;20044;-68
2023/05/08 07:44:47;;;;;;;11.60;6.82;;;;;;;-144.73;89.36;54407.69;5013209;28;20033;-68
2023/05/08 07:47:13;;;;;;;10.88;7.28;;;;;;;-144.73;89.26;54362.53;5014245;28;20484;-68
2023/05/08 07:49:38;;;;;;;8.30;6.30;;;;;;;-144.73;89.92;54415.91;5013206;28;20495;-68
2023/05/08 07:52:04;;;;;;;9.43;6.82;;;;;;;-144.73;87.95;54389.22;5014140;28;20061;-68
2023/05/08 07:54:29;;;;;;;12.85;7.30;;;;;;;-144.73;86.80;54417.97;5013023;28;20112;-68
2023/05/08 07:56:54;;;;;;;14.93;7.70;;;;;;;-144.73;86.12;54378.97;5013243;28;20041;-68
2023/05/08 07:59:20;;;;;;;14.18;7.47;;;;;;;-144.73;86.15;54352.28;5013686;28;20542;-68
2023/05/08 08:01:46;;;;;;;14.15;7.53;;;;;;;-144.73;85.10;54407.69;5030089;28;20025;-69
2023/05/08 08:04:13;;;;;;;15.30;6.82;;;;;;;-144.73;86.30;54389.22;5031609;28;20022;-69
2023/05/08 08:06:39;;;;;;;17.50;7.88;;;;;;;-144.73;85.48;54391.28;5030568;28;20030;-70
2023/05/08 08:09:04;;;;;;;11.57;7.40;;;;;;;-144.73;84.62;54420.00;5013939;28;20031;-69
2023/05/08 08:11:29;;;;;;;11.32;7.43;;;;;;;-144.73;84.09;54397.44;5030425;28;20033;-69
2023/05/08 08:13:55;;;;;;;12.13;8.27;;;;;;;-144.73;82.58;54374.84;5012902;28;20029;-69
2023/05/08 08:16:20;;;;;;;15.20;8.30;;;;;;;-144.73;84.53;54407.69;5013747;28;20034;-69
2023/05/08 08:18:45;;;;;;;12.77;7.68;;;;;;;-144.73;84.80;54358.44;5012870;28;20063;-69
2023/05/08 08:21:11;;;;;;;10.90;6.97;;;;;;;-144.73;83.08;54387.19;5012161;28;20083;-69
2023/05/08 08:23:36;;;;;;;10.82;6.30;;;;;;;-144.73;81.79;54395.38;5012997;28;20014;-68
2023/05/08 08:26:02;;;;;;;11.70;7.22;;;;;;;-144.73;80.89;54374.84;5013239;28;20036;-69
2023/05/08 08:28:27;;;;;;;18.02;8.05;;;;;;;-144.73;79.68;54378.97;5030707;28;20021;-70
2023/05/08 08:30:52;;;;;;;12.98;6.82;;;;;;;-144.73;79.92;54430.28;5012639;28;20026;-71
2023/05/08 08:33:18;;;;;;;9.75;7.13;;;;;;;-144.73;80.14;54411.81;5014207;28;20033;-68
2023/05/08 08:35:43;;;;;;;16.10;7.68;;;;;;;-144.73;81.71;54436.44;5013658;28;20033;-69
2023/05/08 08:38:08;;;;;;;9.43;6.90;;;;;;;-144.73;80.63;54393.34;5013152;28;20108;-70
2023/05/08 08:40:40;;;;;;;9.70;7.32;;;;;;;-144.73;79.46;54387.19;5032435;28;20029;-70
2023/05/08 08:43:06;;;;;;;22.08;7.53;;;;;;;-144.73;79.03;54378.97;5032447;28;20042;-69
2023/05/08 08:45:32;;;;;;;10.73;7.32;;;;;;;-144.73;79.37;54354.34;5013871;28;20036;-69
2023/05/08 08:48:00;;;;;;;11.32;6.68;;;;;;;-144.73;78.26;54378.97;5028417;28;20061;-69
2023/05/08 08:50:31;;;;;;;12.32;7.63;;;;;;;-144.73;76.98;54354.34;5011991;28;20029;-69
2023/05/08 08:53:11;;;;;;;18.92;8.02;;;;;;;-144.73;78.33;54350.22;5013381;28;20034;-70
2023/05/08 08:55:43;;;;;;;12.55;6.85;;;;;;;-144.73;75.94;54383.06;5014333;28;20029;-70
2023/05/08 08:58:24;;;;;;;;;;;;;;;-144.73;74.98;54385.13;5031656;28;20489;-68
2023/05/08 09:00:50;;;;;;;11.70;7.60;;;;;;;-144.73;72.50;54325.59;5013387;28;19970;-69
2023/05/08 09:03:16;;;;;;;12.32;7.40;;;;;;;-144.73;72.34;54364.59;5029371;28;20018;-68
2023/05/08 09:05:42;;;;;;;13.35;6.72;;;;;;;-144.73;72.13;54354.34;5013003;28;20025;-69
2023/05/08 09:08:09;;;;;;;15.68;6.75;;;;;;;-144.73;71.01;54354.34;5013756;28;20041;-69
2023/05/08 09:10:35;;;;;;;15.20;7.28;;;;;;;-144.73;70.68;54342.03;5011815;28;20021;-69
2023/05/08 09:13:01;;;;;;;11.90;6.82;;;;;;;-144.73;69.06;54378.97;5013653;28;20033;-69
2023/05/08 09:15:27;;;;;;;9.73;6.50;;;;;;;-144.73;68.74;54362.53;5012606;28;20031;-69
2023/05/08 09:17:52;;;;;;;10.48;6.70;;;;;;;-144.73;70.83;54362.53;5029855;28;20037;-69
2023/05/08 09:20:18;;;;;;;9.07;6.35;;;;;;;-144.73;70.28;54407.69;5013650;28;20022;-69
2023/05/08 09:22:43;;;;;;;19.73;6.78;;;;;;;-144.73;69.73;54383.06;5029474;28;20041;-69
2023/05/08 09:25:09;;;;;;;14.70;6.75;;;;;;;-144.73;70.11;54391.28;5011924;28;20057;-69
2023/05/08 09:27:35;;;;;;;12.40;7.18;;;;;;;-144.73;70.43;54395.38;5030205;28;20034;-69
2023/05/08 09:30:03;;;;;;;16.13;7.28;;;;;;;-144.73;70.94;54395.38;5011894;28;20025;-70
2023/05/08 09:32:29;;;;;;;8.50;6.55;;;;;;;-144.73;71.81;54436.44;5011774;28;20042;-70
2023/05/08 09:34:55;;;;;;;18.42;6.30;;;;;;;-144.73;71.81;54415.91;5010937;28;20076;-70
2023/05/08 09:37:20;;;;;;;15.13;6.85;;;;;;;-144.73;70.85;54391.28;5028739;28;20030;-70
2023/05/08 09:39:46;;;;;;;8.68;6.55;;;;;;;-144.73;69.45;54378.97;5030686;28;20025;-69
2023/05/08 09:42:12;;;;;;;20.83;6.40;;;;;;;-144.73;68.47;54358.44;5011302;28;20053;-69
2023/05/08 09:44:52;;;;;;;18.70;6.18;;;;;;;-144.73;67.56;54329.72;5011577;28;20025;-69
2023/05/08 09:47:20;;;;;;;9.30;5.70;;;;;;;-144.73;65.90;54346.13;5011786;28;20057;-69
2023/05/08 09:49:59;;;;;;;14.65;6.35;;;;;;;-144.73;66.56;54395.38;5029845;28;20544;-69
2023/05/08 09:52:25;;;;;;;14.43;6.68;;;;;;;-144.73;66.87;54378.97;5029724;28;20025;-70
2023/05/08 09:55:08;;;;;;;15.55;6.60;;;;;;;-144.73;64.41;54387.19;5027437;28;20045;-70
2023/05/08 09:57:37;;;;;;;11.52;5.88;;;;;;;-144.73;67.79;54420.00;5027894;28;20148;-70
2023/05/08 10:00:07;;;;;;;15.00;7.72;;;;;;;-144.73;67.78;54350.22;5010976;28;20041;-70
2023/05/08 10:02:33;;;;;;;9.85;5.90;;;;;;;-144.73;66.25;54415.91;5011716;28;20037;-70
2023/05/08 10:04:59;;;;;;;9.50;6.70;;;;;;;-144.73;66.49;54395.38;5011843;28;20107;-70
2023/05/08 10:07:29;;;;;;;9.38;6.40;;;;;;;-144.73;67.56;54397.44;5028561;28;20041;-70
2023/05/08 10:10:03;;;;;;;13.53;6.07;;;;;;;-144.73;67.69;54387.19;5011624;28;20097;-70
2023/05/08 10:12:29;;;;;;;9.23;5.60;;;;;;;-144.73;67.13;54420.00;5029428;28;20033;-70
2023/05/08 10:14:55;;;;;;;7.05;4.88;;;;;;;-144.73;65.65;54333.81;5028455;28;20480;-70
2023/05/08 10:17:42;;;;;;;16.75;7.25;;;;;;;-144.73;62.41;54344.06;5029060;28;20120;-70
2023/05/08 10:20:12;;;;;;;7.93;5.55;;;;;;;-144.73;60.93;54350.22;5029172;28;20036;-70
2023/05/08 10:22:42;;;;;;;20.70;6.47;;;;;;;-144.73;59.99;54350.22;5028563;28;20030;-70
2023/05/08 10:25:16;;;;;;;9.93;5.70;;;;;;;-144.73;61.08;54378.97;5012073;28;20057;-70
2023/05/08 10:27:58;;;;;;;13.70;5.40;;;;;;;-144.73;59.98;54407.69;5012459;28;20030;-70
2023/05/08 10:30:25;;;;;;;8.90;5.18;;;;;;;-144.73;62.03;54368.69;5013042;28;20025;-70
2023/05/08 10:32:54;;;;;;;13.65;5.05;;;;;;;-144.73;62.87;54389.22;5013570;28;20048;-70
2023/05/08 10:35:20;;;;;;;9.95;5.22;;;;;;;-144.73;63.28;54395.38;5013452;28;20040;-69
2023/05/08 10:37:48;;;;;;;7.53;4.90;;;;;;;-144.73;60.45;54383.06;5029157;28;20041;-70
2023/05/08 10:40:20;;;;;;;9.55;4.10;;;;;;;-144.73;59.21;54364.59;5028817;28;20029;-68
2023/05/08 10:42:46;;;;;;;6.75;4.18;;;;;;;-144.73;58.81;54387.19;5010117;28;20037;-69
2023/05/08 10:45:12;;;;;;;13.10;5.25;;;;;;;-144.73;57.61;54362.53;5030336;28;20029;-69
2023/05/08 10:48:03;;;;;;;11.10;4.32;;;;;;;-144.73;57.00;54333.81;5027345;28;20033;-69
2023/05/08 10:50:50;;;;;;;7.70;4.30;;;;;;;-144.73;56.58;54356.38;5028687;28;20022;-69
2023/05/08 10:53:21;;;;;;;10.98;4.25;;;;;;;-144.73;56.62;54395.38;5030061;28;20079;-68
2023/05/08 10:55:50;;;;;;;13.48;4.30;;;;;;;-144.73;58.26;54370.75;5012513;28;20030;-69
2023/05/08 10:58:54;;;;;;;6.68;4.35;;;;;;;-144.73;58.70;54415.91;5029256;28;20089;-70
2023/05/08 11:01:20;;;;;;;8.50;4.20;;;;;;;-144.73;58.91;54374.84;4983508;28;20034;-69
2023/05/08 11:03:49;;;;;;;11.60;4.00;;;;;;;-144.73;58.37;54362.53;5001031;28;20045;-69
2023/05/08 11:06:15;;;;;;;6.60;3.92;;;;;;;-144.73;56.91;54354.34;5010991;28;20154;-69
2023/05/08 11:08:49;;;;;;;15.30;4.53;;;;;;;-144.73;55.20;54337.91;5011437;28;20033;-69
2023/05/08 11:11:32;;;;;;;9.70;3.78;;;;;;;-144.73;54.13;54329.72;5029197;28;20051;-69
2023/05/08 11:14:10;;;;;;;5.70;3.20;;;;;;;-144.73;53.45;54305.06;5029181;28;20079;-71
2023/05/08 11:16:54;;;;;;;8.98;3.30;;;;;;;-144.73;52.74;54329.72;5030187;28;20032;-69